createdAt,value
2018-11-01T00:01:02.369Z,4.75
2018-11-01T00:03:32.112Z,5.40
2018-11-01T00:06:01.544Z,3.70
2018-11-01T00:08:30.931Z,3.75
2018-11-01T00:11:01.122Z,4.87
2018-11-01T00:13:31.037Z,4.60
2018-11-01T00:16:01.071Z,4.72
2018-11-01T00:18:30.969Z,4.25
2018-11-01T00:21:01.088Z,3.87
2018-11-01T00:23:31.044Z,4.00
2018-11-01T00:26:00.971Z,3.47
2018-11-01T00:28:32.090Z,5.20
2018-11-01T00:31:01.464Z,4.20
2018-11-01T00:33:31.092Z,6.00
2018-11-01T00:36:01.043Z,6.17
2018-11-01T00:38:31.264Z,4.60
2018-11-01T00:41:01.096Z,4.47
2018-11-01T00:43:31.097Z,3.52
2018-11-01T00:46:01.075Z,4.17
2018-11-01T00:48:31.105Z,4.97
2018-11-01T00:51:01.105Z,3.62
2018-11-01T00:53:31.069Z,5.72
2018-11-01T00:56:01.086Z,6.33
2018-11-01T00:58:31.158Z,4.65
2018-11-01T01:01:01.185Z,4.50
2018-11-01T01:03:31.154Z,3.92
2018-11-01T01:06:01.199Z,5.87
2018-11-01T01:08:31.163Z,4.72
2018-11-01T01:11:01.103Z,4.67
2018-11-01T01:13:31.118Z,3.72
2018-11-01T01:16:01.140Z,7.30
2018-11-01T01:18:31.146Z,3.80
2018-11-01T01:21:01.175Z,5.28
2018-11-01T01:23:31.134Z,4.75
2018-11-01T01:26:01.171Z,6.35
2018-11-01T01:28:31.279Z,5.28
2018-11-01T01:31:01.225Z,3.87
2018-11-01T01:33:31.304Z,4.00
2018-11-01T01:36:01.241Z,4.28
2018-11-01T01:38:31.179Z,3.40
2018-11-01T01:41:01.232Z,3.90
2018-11-01T01:43:31.210Z,5.70
2018-11-01T01:46:01.344Z,3.80
2018-11-01T01:48:31.311Z,3.33
2018-11-01T01:51:01.353Z,3.70
2018-11-01T01:53:31.189Z,4.25
2018-11-01T01:56:01.213Z,4.47
2018-11-01T01:58:31.308Z,3.30
2018-11-01T02:01:01.298Z,3.87
2018-11-01T02:03:31.409Z,3.02
2018-11-01T02:06:01.340Z,4.47
2018-11-01T02:08:31.300Z,4.05
2018-11-01T02:11:01.293Z,4.12
2018-11-01T02:13:31.309Z,6.12
2018-11-01T02:16:01.346Z,4.70
2018-11-01T02:18:31.371Z,3.35
2018-11-01T02:21:01.425Z,4.00
2018-11-01T02:23:31.419Z,4.33
2018-11-01T02:26:01.371Z,4.70
2018-11-01T02:28:31.350Z,4.15
2018-11-01T02:31:01.337Z,4.17
2018-11-01T02:33:31.399Z,4.10
2018-11-01T02:36:01.413Z,3.25
2018-11-01T02:38:31.443Z,4.60
2018-11-01T02:41:01.493Z,4.67
2018-11-01T02:43:31.344Z,4.67
2018-11-01T02:46:02.029Z,4.97
2018-11-01T02:48:31.471Z,3.58
2018-11-01T02:51:01.235Z,4.13
2018-11-01T02:53:31.445Z,4.12
2018-11-01T02:56:01.420Z,4.62
2018-11-01T02:58:31.458Z,4.22
2018-11-01T03:01:01.460Z,4.80
2018-11-01T03:03:31.636Z,5.85
2018-11-01T03:06:01.413Z,4.70
2018-11-01T03:08:31.464Z,6.03
2018-11-01T03:11:01.536Z,4.87
2018-11-01T03:13:31.405Z,4.22
2018-11-01T03:16:01.407Z,3.80
2018-11-01T03:18:31.469Z,3.27
2018-11-01T03:21:01.407Z,4.70
2018-11-01T03:23:31.927Z,4.55
2018-11-01T03:26:01.522Z,6.50
2018-11-01T03:28:31.511Z,3.87
2018-11-01T03:31:01.415Z,4.97
2018-11-01T03:33:31.509Z,4.72
2018-11-01T03:36:01.554Z,4.28
2018-11-01T03:38:31.613Z,4.97
2018-11-01T03:41:01.570Z,4.22
2018-11-01T03:43:31.606Z,5.83
2018-11-01T03:46:01.598Z,4.47
2018-11-01T03:48:31.462Z,6.22
2018-11-01T03:51:01.504Z,5.55
2018-11-01T03:53:31.627Z,4.42
2018-11-01T03:56:01.547Z,5.20
2018-11-01T03:58:31.630Z,5.25
2018-11-01T04:01:01.542Z,4.30
2018-11-01T04:03:31.565Z,5.22
2018-11-01T04:06:01.530Z,5.53
2018-11-01T04:08:31.581Z,3.98
2018-11-01T04:11:01.445Z,5.00
2018-11-01T04:13:31.600Z,4.92
2018-11-01T04:16:01.590Z,4.30
2018-11-01T04:18:31.502Z,5.22
2018-11-01T04:21:01.583Z,4.05
2018-11-01T04:23:31.907Z,5.93
2018-11-01T04:26:01.659Z,4.95
2018-11-01T04:28:31.919Z,5.83
2018-11-01T04:31:01.641Z,5.00
2018-11-01T04:33:31.678Z,4.15
2018-11-01T04:36:01.555Z,4.37
2018-11-01T04:38:31.562Z,4.97
2018-11-01T04:41:01.607Z,5.45
2018-11-01T04:43:31.703Z,5.83
2018-11-01T04:46:01.615Z,5.15
2018-11-01T04:48:31.700Z,4.92
2018-11-01T04:51:01.684Z,4.30
2018-11-01T04:53:31.662Z,6.08
2018-11-01T04:56:01.653Z,5.35
2018-11-01T04:58:31.606Z,5.20
2018-11-01T05:01:01.658Z,5.22
2018-11-01T05:03:31.714Z,5.83
2018-11-01T05:06:01.758Z,4.60
2018-11-01T05:41:40.444Z,6.00
2018-11-01T05:44:09.666Z,4.55
2018-11-01T05:46:38.925Z,5.97
2018-11-01T05:49:08.322Z,4.25
2018-11-01T05:51:37.663Z,6.37
2018-11-01T05:54:06.981Z,3.80
2018-11-01T05:56:36.379Z,3.80
2018-11-01T05:59:06.221Z,4.87
2018-11-01T06:01:38.167Z,5.83
2018-11-01T06:04:07.509Z,5.17
2018-11-01T06:06:36.749Z,7.33
2018-11-01T06:09:09.865Z,5.50
2018-11-01T06:11:39.524Z,5.37
2018-11-01T06:14:08.962Z,5.43
2018-11-01T06:16:38.315Z,5.05
2018-11-01T06:19:07.685Z,7.30
2018-11-01T06:21:37.081Z,5.73
2018-11-01T06:24:06.598Z,5.00
2018-11-01T06:26:36.229Z,4.43
2018-11-01T06:29:05.751Z,5.70
2018-11-01T06:31:35.213Z,4.77
2018-11-01T06:34:04.637Z,5.30
2018-11-01T06:36:33.972Z,6.42
2018-11-01T06:39:05.118Z,4.83
2018-11-01T06:41:34.385Z,7.63
2018-11-01T06:44:04.060Z,6.00
2018-11-01T06:46:34.103Z,4.75
2018-11-01T06:49:03.993Z,7.22
2018-11-01T06:51:33.864Z,5.47
2018-11-01T06:54:03.987Z,4.97
2018-11-01T06:56:33.981Z,5.45
2018-11-01T06:59:04.373Z,7.78
2018-11-01T07:01:34.160Z,6.60
2018-11-01T07:04:04.066Z,7.60
2018-11-01T07:06:34.206Z,5.35
2018-11-01T07:09:04.631Z,6.70
2018-11-01T07:11:34.165Z,5.87
2018-11-01T07:14:04.014Z,6.03
2018-11-01T07:16:34.065Z,5.97
2018-11-01T07:19:04.276Z,7.85
2018-11-01T07:21:34.170Z,5.45
2018-11-01T07:24:04.065Z,5.40
2018-11-01T07:26:34.081Z,6.40
2018-11-01T07:29:04.146Z,6.83
2018-11-01T07:31:40.758Z,5.43
2018-11-01T07:34:10.177Z,4.37
2018-11-01T07:36:39.535Z,4.40
2018-11-01T07:39:10.457Z,5.47
2018-11-01T07:41:40.208Z,5.90
2018-11-01T07:44:09.759Z,5.67
2018-11-01T07:46:39.015Z,6.10
2018-11-01T07:49:08.540Z,4.67
2018-11-01T07:51:38.363Z,6.67
2018-11-01T07:54:09.115Z,6.97
2018-11-01T07:56:38.693Z,5.95
2018-11-01T07:59:08.037Z,6.45
2018-11-01T08:01:37.389Z,6.27
2018-11-01T08:04:06.699Z,7.50
2018-11-01T08:06:36.224Z,4.67
2018-11-01T08:09:08.149Z,6.50
2018-11-01T08:11:37.711Z,5.73
2018-11-01T08:14:07.428Z,5.47
2018-11-01T08:16:36.752Z,7.37
2018-11-01T08:19:06.814Z,5.35
2018-11-01T08:21:36.143Z,4.80
2018-11-01T08:24:05.703Z,7.43
2018-11-01T08:26:35.043Z,7.07
2018-11-01T08:29:04.365Z,5.23
2018-11-01T08:31:34.265Z,7.05
2018-11-01T08:34:04.265Z,6.78
2018-11-01T08:36:34.257Z,7.37
2018-11-01T08:39:05.664Z,8.10
2018-11-01T08:41:34.971Z,7.07
2018-11-01T08:44:04.312Z,5.80
2018-11-01T08:46:34.237Z,8.23
2018-11-01T08:49:04.259Z,5.85
2018-11-01T08:51:34.301Z,6.35
2018-11-01T08:54:04.808Z,5.33
2018-11-01T08:56:34.332Z,5.58
2018-11-01T08:59:04.376Z,6.67
2018-11-01T09:01:34.239Z,7.08
2018-11-01T09:04:04.659Z,5.95
2018-11-01T09:06:34.315Z,6.72
2018-11-01T09:09:05.597Z,6.65
2018-11-01T09:11:34.918Z,5.33
2018-11-01T09:14:04.240Z,7.77
2018-11-01T09:16:34.469Z,7.25
2018-11-01T09:19:04.745Z,8.50
2018-11-01T09:21:34.367Z,5.90
2018-11-01T09:24:04.408Z,6.53
2018-11-01T09:26:34.366Z,7.03
2018-11-01T09:29:04.569Z,6.72
2018-11-01T09:31:34.359Z,8.67
2018-11-01T09:34:04.634Z,9.58
2018-11-01T09:36:34.413Z,7.25
2018-11-01T09:39:05.695Z,6.53
2018-11-01T09:41:35.027Z,7.77
2018-11-01T09:44:04.452Z,6.00
2018-11-01T09:46:34.896Z,6.83
2018-11-01T09:49:04.455Z,8.13
2018-11-01T09:51:34.407Z,8.28
2018-11-01T09:54:04.524Z,6.08
2018-11-01T09:56:34.830Z,8.28
2018-11-01T09:59:04.413Z,8.03
2018-11-01T10:01:34.440Z,6.65
2018-11-01T10:04:04.538Z,9.13
2018-11-01T10:06:34.415Z,6.55
2018-11-01T10:09:05.803Z,6.20
2018-11-01T10:11:35.283Z,5.83
2018-11-01T10:14:04.601Z,7.67
2018-11-01T10:16:34.695Z,7.70
2018-11-01T10:19:04.664Z,6.65
2018-11-01T10:21:34.551Z,6.12
2018-11-01T10:24:04.612Z,7.72
2018-11-01T10:26:34.555Z,8.03
2018-11-01T10:29:04.623Z,7.72
2018-11-01T10:31:34.582Z,7.00
2018-11-01T10:34:04.704Z,8.90
2018-11-01T10:36:34.553Z,6.95
2018-11-01T10:39:06.175Z,6.30
2018-11-01T10:41:35.499Z,7.00
2018-11-01T10:44:05.056Z,8.83
2018-11-01T10:46:34.673Z,7.40
2018-11-01T10:49:04.583Z,10.00
2018-11-01T10:51:34.744Z,6.87
2018-11-01T10:54:04.770Z,6.42
2018-11-01T10:56:34.593Z,9.25
2018-11-01T10:59:04.539Z,7.47
2018-11-01T11:01:38.025Z,6.00
2018-11-01T11:04:07.872Z,5.80
2018-11-01T11:06:42.726Z,7.97
2018-11-01T11:09:11.941Z,7.50
2018-11-01T11:11:41.252Z,6.43
2018-11-01T11:14:11.072Z,9.43
2018-11-01T11:16:40.382Z,5.83
2018-11-01T11:19:09.724Z,6.33
2018-11-01T11:21:39.117Z,7.33
2018-11-01T11:24:08.540Z,7.10
2018-11-01T11:26:37.855Z,7.03
2018-11-01T11:29:07.159Z,8.83
2018-11-01T11:31:36.526Z,6.47
2018-11-01T11:34:06.037Z,7.10
2018-11-01T11:36:35.428Z,9.70
2018-11-01T11:39:08.228Z,7.13
2018-11-01T11:41:37.588Z,7.40
2018-11-01T11:44:07.358Z,7.37
2018-11-01T11:46:36.775Z,6.83
2018-11-01T11:49:06.866Z,10.10
2018-11-01T11:51:36.881Z,6.87
2018-11-01T11:54:07.140Z,8.67
2018-11-01T11:56:39.933Z,9.97
2018-11-01T11:59:09.498Z,7.03
2018-11-01T12:01:38.821Z,8.98
2018-11-01T12:04:08.093Z,9.17
2018-11-01T12:06:37.462Z,7.07
2018-11-01T12:09:08.629Z,9.67
2018-11-01T12:11:37.957Z,9.80
2018-11-01T12:14:07.331Z,9.20
2018-11-01T12:16:36.636Z,10.82
2018-11-01T12:19:05.933Z,6.90
2018-11-01T12:21:35.519Z,9.23
2018-11-01T12:24:05.454Z,8.07
2018-11-01T12:26:34.731Z,9.75
2018-11-01T12:29:04.806Z,8.07
2018-11-01T12:31:34.649Z,8.85
2018-11-01T12:34:05.312Z,10.80
2018-11-01T12:36:34.781Z,9.00
2018-11-01T12:39:06.514Z,7.92
2018-11-01T12:41:35.874Z,9.50
2018-11-01T12:44:05.156Z,8.43
2018-11-01T12:46:34.904Z,7.45
2018-11-01T12:49:04.681Z,9.53
2018-11-01T12:51:34.707Z,8.08
2018-11-01T12:54:04.770Z,8.35
2018-11-01T12:56:35.198Z,8.20
2018-11-01T12:59:05.690Z,7.83
2018-11-01T13:01:35.060Z,10.03
2018-11-01T13:04:05.025Z,11.38
2018-11-01T13:06:35.046Z,8.38
2018-11-01T13:09:08.352Z,8.40
2018-11-01T13:11:37.853Z,9.13
2018-11-01T13:14:07.543Z,8.23
2018-11-01T13:16:36.977Z,8.47
2018-11-01T13:19:06.901Z,8.97
2018-11-01T13:21:36.355Z,8.77
2018-11-01T13:24:06.215Z,9.30
2018-11-01T13:26:35.625Z,11.67
2018-11-01T13:29:05.404Z,10.03
2018-11-01T13:31:34.899Z,9.90
2018-11-01T13:34:05.097Z,11.38
2018-11-01T13:36:35.016Z,11.03
2018-11-01T13:39:06.576Z,10.35
2018-11-01T13:41:36.211Z,10.78
2018-11-01T13:44:05.763Z,11.73
2018-11-01T13:46:35.329Z,11.10
2018-11-01T13:49:05.374Z,11.30
2018-11-01T13:51:34.999Z,10.18
2018-11-01T13:54:05.168Z,9.58
2018-11-01T13:56:35.062Z,12.45
2018-11-01T13:59:05.769Z,12.15
2018-11-01T14:01:35.204Z,13.87
2018-11-01T14:04:05.357Z,12.37
2018-11-01T14:06:38.128Z,11.20
2018-11-01T14:09:09.345Z,12.90
2018-11-01T14:11:38.804Z,11.47
2018-11-01T14:14:08.941Z,12.80
2018-11-01T14:16:38.080Z,13.38
2018-11-01T14:19:07.404Z,12.53
2018-11-01T14:21:36.753Z,12.57
2018-11-01T14:24:06.776Z,12.37
2018-11-01T14:26:36.109Z,15.20
2018-11-01T14:29:05.727Z,10.40
2018-11-01T14:31:35.262Z,10.90
2018-11-01T14:34:05.409Z,11.15
2018-11-01T14:36:35.158Z,14.43
2018-11-01T14:39:08.470Z,10.75
2018-11-01T14:41:37.864Z,12.03
2018-11-01T14:44:07.538Z,12.73
2018-11-01T14:46:36.976Z,12.70
2018-11-01T14:49:06.891Z,14.17
2018-11-01T14:51:36.379Z,11.73
2018-11-01T14:54:06.638Z,13.27
2018-11-01T14:56:37.304Z,12.63
2018-11-01T14:59:06.718Z,13.15
2018-11-01T15:01:35.109Z,13.98
2018-11-01T15:04:05.352Z,14.15
2018-11-01T15:06:35.173Z,11.17
2018-11-01T15:09:09.033Z,14.30
2018-11-01T15:11:38.504Z,12.67
2018-11-01T15:14:07.769Z,12.33
2018-11-01T15:16:37.286Z,15.28
2018-11-01T15:19:07.414Z,14.43
2018-11-01T15:21:36.750Z,11.50
2018-11-01T15:24:06.975Z,14.27
2018-11-01T15:26:36.336Z,13.83
2018-11-01T15:29:07.151Z,11.93
2018-11-01T15:31:36.542Z,12.67
2018-11-01T15:34:06.177Z,15.77
2018-11-01T15:36:35.614Z,14.37
2018-11-01T15:39:09.416Z,14.70
2018-11-01T15:41:38.766Z,13.40
2018-11-01T15:44:08.221Z,12.73
2018-11-01T15:46:37.611Z,13.07
2018-11-01T15:49:07.755Z,12.27
2018-11-01T15:51:37.111Z,12.30
2018-11-01T15:54:06.580Z,12.80
2018-11-01T15:56:35.978Z,13.20
2018-11-01T15:59:05.477Z,14.50
2018-11-01T16:01:36.105Z,12.28
2018-11-01T16:04:06.012Z,16.27
2018-11-01T16:06:35.263Z,16.17
2018-11-01T16:09:08.804Z,14.70
2018-11-01T16:11:38.328Z,13.30
2018-11-01T16:14:07.749Z,13.30
2018-11-01T16:16:37.118Z,10.73
2018-11-01T16:19:07.293Z,13.83
2018-11-01T16:21:36.683Z,14.40
2018-11-01T16:24:06.360Z,15.93
2018-11-01T16:26:35.686Z,14.93
2018-11-01T16:29:05.325Z,15.13
2018-11-01T16:31:35.377Z,14.10
2018-11-01T16:34:05.375Z,21.20
2018-11-01T16:36:35.441Z,19.48
2018-11-01T16:39:09.007Z,19.92
2018-11-01T16:41:38.517Z,18.90
2018-11-01T16:44:08.068Z,18.03
2018-11-01T16:46:37.707Z,15.53
2018-11-01T16:49:08.434Z,13.20
2018-11-01T16:51:37.804Z,18.23
2018-11-01T16:54:07.385Z,16.37
2018-11-01T16:56:36.841Z,20.17
2018-11-01T16:59:06.458Z,20.10
2018-11-01T17:01:35.779Z,19.30
2018-11-01T17:04:05.863Z,15.25
2018-11-01T17:06:35.432Z,16.05
2018-11-01T17:09:08.333Z,19.15
2018-11-01T17:11:37.993Z,15.20
2018-11-01T17:14:07.362Z,15.98
2018-11-01T17:16:37.508Z,17.07
2018-11-01T17:19:08.253Z,16.53
2018-11-01T17:21:38.032Z,15.87
2018-11-01T17:24:07.617Z,13.93
2018-11-01T17:26:37.313Z,14.57
2018-11-01T17:29:06.772Z,11.73
2018-11-01T17:31:36.186Z,13.00
2018-11-01T17:34:05.913Z,11.60
2018-11-01T17:36:35.371Z,13.62
2018-11-01T17:39:07.983Z,15.43
2018-11-01T17:41:37.527Z,13.13
2018-11-01T17:44:07.061Z,17.90
2018-11-01T17:46:36.373Z,20.27
2018-11-01T17:49:07.127Z,21.10
2018-11-01T17:51:36.568Z,18.77
2018-11-01T17:54:06.108Z,19.60
2018-11-01T17:56:35.489Z,16.90
2018-11-01T17:59:05.707Z,20.90
2018-11-01T18:01:35.552Z,18.67
2018-11-01T18:04:06.908Z,21.55
2018-11-01T18:06:36.955Z,17.20
2018-11-01T18:09:11.083Z,19.00
2018-11-01T18:11:40.795Z,16.66
2018-11-01T18:14:10.454Z,14.60
2018-11-01T18:16:39.921Z,14.87
2018-11-01T18:19:09.409Z,15.40
2018-11-01T18:21:38.952Z,16.80
2018-11-01T18:24:08.513Z,14.55
2018-11-01T18:26:37.913Z,21.27
2018-11-01T18:29:07.659Z,17.57
2018-11-01T18:31:37.253Z,17.63
2018-11-01T18:34:06.627Z,18.57
2018-11-01T18:36:36.010Z,18.17
2018-11-01T18:39:11.977Z,15.65
2018-11-01T18:41:41.387Z,19.27
2018-11-01T18:44:10.753Z,16.67
2018-11-01T18:46:40.148Z,16.82
2018-11-01T18:49:09.488Z,18.37
2018-11-01T18:51:38.808Z,16.57
2018-11-01T18:54:08.333Z,14.47
2018-11-01T18:56:37.798Z,16.13
2018-11-01T18:59:07.782Z,15.57
2018-11-01T19:01:37.252Z,16.10
2018-11-01T19:04:06.703Z,13.90
2018-11-01T19:06:36.026Z,14.53
2018-11-01T19:09:08.474Z,16.80
2018-11-01T19:11:37.888Z,16.73
2018-11-01T19:14:07.505Z,18.87
2018-11-01T19:16:36.741Z,18.37
2018-11-01T19:19:06.284Z,16.03
2018-11-01T19:21:35.718Z,14.37
2018-11-01T19:24:05.877Z,14.55
2018-11-01T19:26:35.770Z,13.18
2018-11-01T19:29:05.676Z,15.87
2018-11-01T19:31:35.612Z,13.70
2018-11-01T19:34:05.808Z,13.53
2018-11-01T19:36:35.652Z,16.07
2018-11-01T19:39:09.387Z,15.05
2018-11-01T19:41:38.785Z,14.30
2018-11-01T19:59:45.081Z,15.00
2018-11-01T20:02:14.506Z,15.38
2018-11-01T20:04:44.103Z,14.07
2018-11-01T20:07:13.485Z,12.93
2018-11-01T20:09:48.869Z,14.07
2018-11-01T20:12:23.530Z,13.80
2018-11-01T20:14:53.443Z,14.33
2018-11-01T20:17:22.777Z,16.33
2018-11-01T20:19:52.169Z,14.43
2018-11-01T20:22:21.627Z,12.23
2018-11-01T20:24:51.729Z,13.55
2018-11-01T20:27:21.710Z,13.85
2018-11-01T20:29:51.688Z,13.65
2018-11-01T20:32:21.744Z,16.60
2018-11-01T20:34:51.736Z,13.65
2018-11-01T20:37:21.699Z,15.23
2018-11-01T20:39:51.773Z,14.10
2018-11-01T20:42:21.685Z,13.38
2018-11-01T20:44:51.703Z,12.70
2018-11-01T20:47:21.737Z,14.55
2018-11-01T20:49:51.648Z,13.28
2018-11-01T20:52:21.738Z,15.90
2018-11-01T20:54:51.782Z,20.20
2018-11-01T20:57:21.817Z,20.15
2018-11-01T20:59:51.711Z,20.85
2018-11-01T21:02:21.668Z,20.05
2018-11-01T21:04:51.711Z,17.07
2018-11-01T21:07:21.702Z,16.07
2018-11-01T21:09:51.844Z,18.02
2018-11-01T21:12:21.644Z,15.72
2018-11-01T21:14:51.583Z,14.95
2018-11-01T21:17:21.629Z,13.70
2018-11-01T21:19:51.588Z,15.35
2018-11-01T21:22:21.673Z,15.35
2018-11-01T21:24:51.686Z,17.02
2018-11-01T21:27:21.709Z,16.17
2018-11-01T21:29:51.668Z,15.20
2018-11-01T21:32:21.692Z,17.07
2018-11-01T21:34:51.690Z,18.92
2018-11-01T21:37:21.728Z,17.65
2018-11-01T21:39:51.659Z,17.45
2018-11-01T21:42:21.673Z,16.52
2018-11-01T21:44:51.661Z,19.62
2018-11-01T21:47:21.723Z,17.52
2018-11-01T21:49:51.729Z,20.17
2018-11-01T21:52:21.678Z,18.23
2018-11-01T21:54:51.773Z,21.07
2018-11-01T21:57:21.765Z,19.77
2018-11-01T21:59:52.470Z,19.73
2018-11-01T22:02:21.883Z,18.57
2018-11-01T22:04:51.772Z,19.75
2018-11-01T22:07:21.812Z,18.73
2018-11-01T22:09:51.776Z,19.98
2018-11-01T22:12:21.822Z,20.65
2018-11-01T22:14:51.689Z,24.70
2018-11-01T22:17:21.791Z,19.50
2018-11-01T22:19:51.860Z,19.87
2018-11-01T22:22:21.817Z,22.42
2018-11-01T22:24:51.763Z,20.45
2018-11-01T22:27:21.752Z,22.17
2018-11-01T22:29:51.712Z,22.82
2018-11-01T22:32:21.812Z,22.25
2018-11-01T22:34:51.713Z,22.35
2018-11-01T22:37:23.552Z,23.83
2018-11-01T22:39:52.978Z,23.73
2018-11-01T22:42:22.328Z,24.50
2018-11-01T22:44:51.915Z,23.87
2018-11-01T22:47:21.846Z,24.32
2018-11-01T22:49:55.866Z,23.77
2018-11-01T22:52:25.201Z,26.93
2018-11-01T22:54:54.544Z,25.73
2018-11-01T22:57:23.937Z,29.43
2018-11-01T22:59:53.281Z,31.87
2018-11-01T23:02:22.634Z,27.93
2018-11-01T23:04:51.932Z,31.13
2018-11-01T23:07:21.909Z,26.42
2018-11-01T23:09:51.843Z,27.32
2018-11-01T23:12:21.850Z,27.25
2018-11-01T23:14:51.901Z,27.67
2018-11-01T23:17:21.859Z,29.63
2018-11-01T23:19:51.914Z,28.62
2018-11-01T23:22:21.955Z,27.17
2018-11-01T23:24:51.894Z,28.47
2018-11-01T23:27:21.814Z,27.40
2018-11-01T23:29:51.861Z,30.15
2018-11-01T23:32:21.772Z,28.77
2018-11-01T23:34:51.952Z,29.57
2018-11-01T23:37:27.102Z,29.37
2018-11-01T23:40:01.811Z,27.62
2018-11-01T23:42:36.367Z,27.37
2018-11-01T23:45:11.365Z,29.63
2018-11-01T23:47:46.004Z,27.93
2018-11-01T23:50:20.775Z,28.03
2018-11-01T23:52:52.737Z,28.77
2018-11-01T23:55:22.159Z,28.37
2018-11-01T23:57:51.923Z,27.35
